Fukuoka Airport
RJFF : now visible

Airfield :











YOU CAN JOIN US ON...

 
LOGIN :

Register | Disclaimer

   EN    FR    IT 

 









Legend :    VFR   Marginal VFR   IFR   Intensive IFR   Very Intensive IFR
Visi :
Ceiling :
>= 8 km
>= 3000ft
5 to 8 km
1000 to 3000 ft
1500m to 5 km
500 to 1000 ft
800 to 1500m
200 to 500 ft
< 800m
< 200 ft
Symbols :   Thunderstorms  Fog  Heavy snow  Heavy precipitations  Wind > 20 kt







- Airport Elevation : 32 ft
- IATA code : FUK


RJFF - Fukuoka

CURRENT METAR :
  • 202030Z AUTO 15008KT 9999 FEW031 SCT033 BKN180 26/25 Q1008 NOSIG RMK A2979

EXPIRED METARs :
  • 202000Z AUTO 13007KT 9999 FEW034 SCT037 BKN160 26/25 Q1008 NOSIG RMK A2979
  • 201930Z AUTO 15011KT 9999 -RA SCT035 BKN038 BKN140 27/25 Q1008 NOSIG RMK A2978
  • 201900Z AUTO 15009KT 9999 -RA FEW031 SCT036 BKN140 27/25 Q1008 NOSIG
  • 201830Z AUTO 15007KT 9999 -RA FEW031 SCT036 BKN130 27/25 Q1008 NOSIG RMK A2979
  • 201800Z AUTO 13007KT 100V160 9999 FEW032 SCT036 BKN130 27/25 Q1008 NOSIG

TAF TAF RJFF
Valid from the 20 at 18:00 until the 22 at 00:00 UTC


201706Z 2018/2200 16010KT 9999 FEW020 SCT040
BECMG 2103/2105 30005KT
TEMPO 2105/2109 3000 TSRA BR FEW008 SCT015 BKN025 FEW025CB
BECMG 2109/2112 14006KT
No reported NOTAMs for that airfield.



MET'MAP, your aeronautical weather chart ! - Copyright ORBIFLY December 2007 - Disclaimer

ORBIFLY MET'MAP TEAM :

Programming & Development : Alexandra Zaïnal
Concept & Development : Baudouin d'Aumeries
Co-Development & Prog : Marc-Olivier Méhu
Technical & hardware support : Manuel Goepfert

Contact : metmap@orbifly.com




SOURCES & CREDITS :

   NOAA       Earth
Advisory